createdAt,value
2018-07-12T00:00:13.228Z,12.25
2018-07-12T00:02:40.714Z,12.35
2018-07-12T00:05:08.175Z,12.95
2018-07-12T00:07:35.659Z,13.10
2018-07-12T00:10:03.118Z,12.70
2018-07-12T00:12:30.572Z,13.20
2018-07-12T00:14:58.060Z,13.55
2018-07-12T00:17:25.519Z,12.50
2018-07-12T00:19:53.283Z,13.80
2018-07-12T00:22:20.753Z,11.65
2018-07-12T00:24:48.375Z,12.40
2018-07-12T00:27:15.984Z,11.20
2018-07-12T00:29:43.555Z,12.20
2018-07-12T00:32:11.060Z,14.10
2018-07-12T00:34:38.528Z,15.23
2018-07-12T00:37:06.032Z,11.55
2018-07-12T00:39:33.548Z,13.30
2018-07-12T00:42:01.016Z,12.80
2018-07-12T00:44:28.487Z,13.05
2018-07-12T00:46:55.942Z,11.90
2018-07-12T00:49:23.539Z,11.73
2018-07-12T00:51:51.005Z,12.98
2018-07-12T00:54:18.558Z,13.70
2018-07-12T00:56:46.145Z,13.43
2018-07-12T00:59:13.641Z,13.98
2018-07-12T01:01:41.228Z,13.90
2018-07-12T01:04:08.728Z,12.95
2018-07-12T01:06:36.213Z,12.25
2018-07-12T01:09:04.999Z,14.87
2018-07-12T01:11:32.833Z,14.13
2018-07-12T01:14:00.328Z,14.15
2018-07-12T01:16:27.905Z,11.50
2018-07-12T01:18:55.603Z,14.95
2018-07-12T01:21:23.238Z,13.85
2018-07-12T01:23:50.754Z,14.60
2018-07-12T01:26:18.213Z,11.12
2018-07-12T01:28:45.744Z,16.40
2018-07-12T01:31:13.227Z,11.97
2018-07-12T01:33:40.705Z,12.80
2018-07-12T01:36:08.156Z,14.33
2018-07-12T01:38:35.612Z,10.72
2018-07-12T01:41:03.119Z,16.40
2018-07-12T01:43:30.578Z,12.75
2018-07-12T01:45:58.110Z,11.25
2018-07-12T01:48:25.555Z,14.85
2018-07-12T01:50:53.002Z,12.63
2018-07-12T01:53:20.476Z,16.70
2018-07-12T01:55:47.931Z,12.33
2018-07-12T01:58:15.425Z,13.35
2018-07-12T02:00:42.896Z,13.78
2018-07-12T02:03:10.362Z,11.63
2018-07-12T02:05:37.835Z,14.53
2018-07-12T02:08:05.287Z,12.07
2018-07-12T02:10:32.804Z,14.33
2018-07-12T02:13:00.968Z,14.33
2018-07-12T02:15:28.957Z,15.63
2018-07-12T02:17:56.653Z,15.60
2018-07-12T02:20:24.165Z,14.58
2018-07-12T02:22:51.675Z,15.30
2018-07-12T02:25:19.137Z,13.98
2018-07-12T02:27:46.628Z,12.45
2018-07-12T02:30:14.108Z,14.30
2018-07-12T02:32:41.575Z,13.03
2018-07-12T02:35:09.095Z,14.53
2018-07-12T02:37:36.547Z,13.60
2018-07-12T02:40:04.008Z,12.82
2018-07-12T02:42:31.492Z,14.28
2018-07-12T02:44:58.954Z,10.50
2018-07-12T02:47:26.435Z,15.28
2018-07-12T02:49:54.171Z,12.40
2018-07-12T02:52:21.636Z,14.68
2018-07-12T02:54:49.380Z,14.23
2018-07-12T02:57:16.850Z,13.95
2018-07-12T02:59:44.329Z,14.20
2018-07-12T03:02:11.792Z,14.75
2018-07-12T03:04:39.228Z,14.43
2018-07-12T03:07:06.702Z,14.38
2018-07-12T03:09:34.160Z,14.38
2018-07-12T03:12:01.658Z,11.63
2018-07-12T03:14:29.427Z,11.38
2018-07-12T03:16:56.888Z,15.10
2018-07-12T03:19:24.361Z,13.80
2018-07-12T03:21:51.825Z,16.10
2018-07-12T03:24:19.302Z,16.02
2018-07-12T03:26:46.769Z,14.23
2018-07-12T03:29:14.240Z,15.18
2018-07-12T03:31:41.753Z,14.55
2018-07-12T03:34:09.240Z,13.15
2018-07-12T03:36:36.715Z,13.95
2018-07-12T03:39:04.804Z,15.35
2018-07-12T03:41:32.257Z,15.60
2018-07-12T03:43:59.724Z,18.50
2018-07-12T03:46:27.181Z,17.57
2018-07-12T03:48:54.660Z,17.37
2018-07-12T03:51:22.212Z,17.00
2018-07-12T03:53:49.817Z,18.17
2018-07-12T03:56:17.296Z,18.25
2018-07-12T03:58:44.778Z,17.85
2018-07-12T04:01:12.250Z,19.52
2018-07-12T04:03:39.728Z,15.93
2018-07-12T04:06:07.205Z,18.50
2018-07-12T04:08:34.712Z,15.53
2018-07-12T04:11:02.184Z,17.37
2018-07-12T04:13:29.696Z,16.90
2018-07-12T04:15:57.181Z,18.55
2018-07-12T04:18:24.659Z,16.55
2018-07-12T04:20:52.121Z,18.90
2018-07-12T04:23:19.581Z,17.73
2018-07-12T04:25:47.069Z,18.27
2018-07-12T04:28:14.534Z,16.45
2018-07-12T04:30:42.034Z,16.45
2018-07-12T04:33:09.508Z,17.57
2018-07-12T04:35:36.991Z,16.20
2018-07-12T04:38:04.488Z,16.27
2018-07-12T04:40:31.957Z,16.40
2018-07-12T04:42:59.441Z,16.15
2018-07-12T04:45:26.936Z,16.90
2018-07-12T04:47:54.456Z,18.60
2018-07-12T04:50:21.899Z,19.32
2018-07-12T04:52:49.384Z,16.67
2018-07-12T04:55:16.968Z,18.65
2018-07-12T04:57:44.420Z,17.42
2018-07-12T05:00:11.917Z,18.37
2018-07-12T05:02:39.385Z,16.48
2018-07-12T05:05:06.849Z,17.48
2018-07-12T05:07:34.345Z,13.75
2018-07-12T05:10:01.839Z,16.52
2018-07-12T05:12:29.325Z,14.20
2018-07-12T05:14:56.845Z,16.10
2018-07-12T05:17:24.328Z,16.70
2018-07-12T05:19:51.832Z,18.90
2018-07-12T05:22:19.322Z,18.23
2018-07-12T05:24:46.773Z,17.15
2018-07-12T05:27:14.244Z,12.45
2018-07-12T05:29:41.814Z,13.35
2018-07-12T05:32:09.276Z,15.98
2018-07-12T05:34:36.744Z,16.62
2018-07-12T05:37:06.047Z,16.30
2018-07-12T05:39:34.809Z,14.50
2018-07-12T05:42:03.560Z,14.53
2018-07-12T05:44:32.814Z,15.43
2018-07-12T05:47:01.537Z,14.70
2018-07-12T05:49:30.367Z,15.13
2018-07-12T05:51:59.137Z,16.05
2018-07-12T05:54:28.782Z,15.25
2018-07-12T05:56:57.480Z,14.40
2018-07-12T05:59:26.255Z,14.75
2018-07-12T06:02:05.976Z,12.25
2018-07-12T06:04:34.743Z,14.58
2018-07-12T06:07:03.462Z,14.05
2018-07-12T06:09:32.222Z,14.55
2018-07-12T06:12:01.002Z,16.75
2018-07-12T06:14:29.838Z,16.45
2018-07-12T06:16:58.240Z,13.40
2018-07-12T06:19:27.020Z,15.45
2018-07-12T06:21:55.738Z,17.85
2018-07-12T06:24:24.564Z,14.85
2018-07-12T06:26:53.529Z,17.02
2018-07-12T06:29:24.105Z,19.32
2018-07-12T06:31:52.877Z,17.10
2018-07-12T06:34:21.673Z,18.75
2018-07-12T06:36:50.405Z,18.42
2018-07-12T06:39:19.252Z,19.02
2018-07-12T06:41:48.068Z,17.45
2018-07-12T06:44:16.794Z,20.65
2018-07-12T06:46:45.601Z,22.22
2018-07-12T06:49:14.558Z,20.90
2018-07-12T06:51:43.335Z,17.82
2018-07-12T06:54:12.069Z,23.38
2018-07-12T06:56:40.821Z,22.58
2018-07-12T06:59:09.701Z,22.30
2018-07-12T07:01:38.492Z,23.30
2018-07-12T07:04:07.221Z,24.47
2018-07-12T07:06:35.965Z,23.75
2018-07-12T07:09:07.224Z,24.63
2018-07-12T07:11:35.965Z,26.75
2018-07-12T07:14:04.720Z,24.90
2018-07-12T07:16:33.549Z,26.30
2018-07-12T07:19:02.267Z,25.70
2018-07-12T07:21:30.984Z,27.70
2018-07-12T07:23:59.820Z,24.40
2018-07-12T07:26:28.610Z,31.30
2018-07-12T07:28:57.325Z,33.67
2018-07-12T07:31:26.090Z,32.40
2018-07-12T07:33:54.876Z,35.80
2018-07-12T07:36:23.679Z,35.03
2018-07-12T07:38:52.399Z,33.98
2018-07-12T07:41:21.113Z,33.10
2018-07-12T07:43:49.831Z,32.10
2018-07-12T07:46:18.605Z,35.40
2018-07-12T07:48:47.329Z,30.72
2018-07-12T07:51:16.069Z,30.32
2018-07-12T07:53:44.773Z,33.28
2018-07-12T07:56:13.490Z,33.20
2018-07-12T07:58:42.594Z,34.33
2018-07-12T08:01:11.365Z,35.88
2018-07-12T08:03:40.088Z,32.13
2018-07-12T08:06:08.781Z,33.48
2018-07-12T08:08:37.535Z,33.48
2018-07-12T08:11:06.417Z,33.20
2018-07-12T08:13:35.158Z,30.23
2018-07-12T08:16:03.903Z,30.68
2018-07-12T08:18:32.740Z,31.00
2018-07-12T08:21:01.471Z,32.23
2018-07-12T08:23:30.277Z,28.95
2018-07-12T08:25:58.956Z,29.65
2018-07-12T08:28:28.909Z,34.80
2018-07-12T08:30:57.890Z,31.20
2018-07-12T08:33:26.687Z,30.57
2018-07-12T08:35:55.478Z,34.23
2018-07-12T08:38:24.213Z,33.20
2018-07-12T08:40:52.995Z,32.80
2018-07-12T08:43:21.722Z,33.05
2018-07-12T08:45:50.652Z,30.40
2018-07-12T08:48:19.442Z,30.95
2018-07-12T08:50:48.129Z,35.13
2018-07-12T08:53:16.945Z,32.53
2018-07-12T08:55:45.666Z,35.78
2018-07-12T08:58:14.373Z,35.83
2018-07-12T09:00:43.123Z,33.90
2018-07-12T09:03:11.556Z,31.00
2018-07-12T09:05:40.243Z,26.77
2018-07-12T09:08:08.990Z,30.20
2018-07-12T09:10:37.731Z,28.38
2018-07-12T09:13:06.472Z,29.00
2018-07-12T09:15:35.220Z,29.25
2018-07-12T09:18:03.942Z,31.75
2018-07-12T09:20:32.650Z,29.95
2018-07-12T09:23:01.401Z,30.45
2018-07-12T09:25:30.184Z,27.37
2018-07-12T09:27:58.856Z,29.23
2018-07-12T09:30:27.605Z,27.98
2018-07-12T09:32:55.969Z,27.22
2018-07-12T09:35:24.663Z,27.73
2018-07-12T09:37:53.448Z,31.52
2018-07-12T09:40:22.175Z,31.10
2018-07-12T09:42:50.921Z,32.00
2018-07-12T09:45:19.641Z,31.23
2018-07-12T09:47:48.345Z,33.80
2018-07-12T09:50:17.075Z,33.98
2018-07-12T09:52:45.816Z,34.73
2018-07-12T09:55:14.576Z,34.63
2018-07-12T09:57:54.518Z,39.50
2018-07-12T10:00:27.405Z,33.98
2018-07-12T10:03:01.466Z,31.80
2018-07-12T10:06:07.629Z,33.28
2018-07-12T10:08:41.728Z,31.50
2018-07-12T10:11:14.618Z,30.95
2018-07-12T10:13:46.537Z,29.30
2018-07-12T10:16:20.551Z,27.67
2018-07-12T10:18:49.300Z,27.67
2018-07-12T10:21:18.038Z,33.15
2018-07-12T10:23:46.817Z,28.70
2018-07-12T10:26:15.577Z,26.60
2018-07-12T10:28:44.689Z,27.55
2018-07-12T10:31:13.384Z,25.15
2018-07-12T10:33:42.124Z,24.15
2018-07-12T10:36:10.829Z,22.75
2018-07-12T10:38:46.000Z,22.40
2018-07-12T10:41:14.711Z,22.73
2018-07-12T10:43:43.383Z,22.13
2018-07-12T10:46:12.101Z,20.62
2018-07-12T10:48:40.854Z,22.75
2018-07-12T10:51:09.574Z,23.85
2018-07-12T10:53:38.292Z,22.98
2018-07-12T10:56:07.013Z,18.92
2018-07-12T10:58:35.705Z,22.55
2018-07-12T11:01:04.448Z,21.68
2018-07-12T11:03:33.171Z,23.07
2018-07-12T11:06:01.889Z,24.00
2018-07-12T11:08:30.630Z,25.20
2018-07-12T11:10:59.308Z,28.90
2018-07-12T11:13:59.932Z,29.15
2018-07-12T11:16:28.627Z,32.13
2018-07-12T11:18:57.339Z,33.28
2018-07-12T11:21:26.081Z,37.42
2018-07-12T11:23:54.770Z,33.73
2018-07-12T11:26:23.504Z,38.92
2018-07-12T11:28:52.239Z,37.78
2018-07-12T11:31:20.979Z,34.80
2018-07-12T11:33:50.833Z,39.95
2018-07-12T11:36:19.777Z,41.50
2018-07-12T11:38:48.594Z,37.60
2018-07-12T11:41:17.303Z,37.50
2018-07-12T11:43:46.083Z,40.85
2018-07-12T11:46:15.740Z,39.30
2018-07-12T11:48:45.058Z,40.00
2018-07-12T11:51:13.788Z,38.33
2018-07-12T11:53:43.326Z,45.20
2018-07-12T11:56:12.067Z,41.92
2018-07-12T11:58:40.777Z,43.83
2018-07-12T12:01:09.489Z,41.65
2018-07-12T12:03:38.188Z,41.23
2018-07-12T12:06:06.961Z,39.98
2018-07-12T12:08:35.684Z,34.38
2018-07-12T12:11:04.501Z,38.35
2018-07-12T12:13:33.262Z,35.10
2018-07-12T12:16:02.098Z,39.73
2018-07-12T12:18:30.829Z,43.90
2018-07-12T12:20:59.593Z,44.38
2018-07-12T12:23:28.296Z,42.13
2018-07-12T12:25:56.976Z,41.35
2018-07-12T12:28:25.696Z,50.15
2018-07-12T12:30:54.393Z,46.58
2018-07-12T12:33:23.111Z,45.80
2018-07-12T12:35:51.922Z,43.45
2018-07-12T12:38:20.637Z,38.40
2018-07-12T12:40:49.346Z,40.80
2018-07-12T12:43:18.077Z,30.68
2018-07-12T12:45:46.925Z,32.83
2018-07-12T12:48:15.664Z,32.08
2018-07-12T12:50:44.442Z,27.55
2018-07-12T12:53:13.112Z,27.60
2018-07-12T12:55:41.873Z,25.97
2018-07-12T12:58:10.604Z,19.95
2018-07-12T13:00:39.348Z,22.13
2018-07-12T13:03:08.045Z,25.82
2018-07-12T13:05:36.737Z,24.52
2018-07-12T13:08:05.583Z,21.37
2018-07-12T13:10:34.309Z,22.02
2018-07-12T13:13:03.056Z,22.80
2018-07-12T13:15:31.761Z,25.65
2018-07-12T13:18:00.524Z,23.80
2018-07-12T13:20:29.269Z,24.27
2018-07-12T13:22:58.002Z,21.57
2018-07-12T13:25:26.743Z,22.37
2018-07-12T13:27:55.534Z,24.50
2018-07-12T13:30:24.252Z,19.48
2018-07-12T13:32:52.984Z,19.87
2018-07-12T13:35:21.828Z,19.48
2018-07-12T13:37:50.545Z,20.45
2018-07-12T13:40:19.371Z,19.15
2018-07-12T13:42:48.102Z,14.97
2018-07-12T13:45:16.796Z,16.37
2018-07-12T13:47:45.505Z,15.67
2018-07-12T13:50:14.248Z,16.30
2018-07-12T13:52:42.919Z,11.37
2018-07-12T13:55:11.677Z,14.20
2018-07-12T13:57:40.392Z,14.17
2018-07-12T14:00:09.129Z,13.17
2018-07-12T14:02:37.874Z,14.60
2018-07-12T14:05:06.684Z,12.73
2018-07-12T14:07:35.829Z,12.63
2018-07-12T14:10:04.965Z,12.83
2018-07-12T14:12:33.749Z,14.00
2018-07-12T14:15:02.136Z,14.20
2018-07-12T14:17:30.847Z,14.50
2018-07-12T14:19:59.650Z,16.63
2018-07-12T14:22:28.313Z,13.17
2018-07-12T14:24:56.992Z,17.47
2018-07-12T14:27:25.691Z,15.17
2018-07-12T14:29:54.378Z,17.87
2018-07-12T14:32:23.314Z,17.30
2018-07-12T14:34:52.036Z,18.63
2018-07-12T14:37:20.837Z,16.03
2018-07-12T14:39:49.567Z,19.17
2018-07-12T14:42:18.354Z,17.77
2018-07-12T14:44:47.074Z,17.53
2018-07-12T14:47:15.771Z,18.50
2018-07-12T14:49:44.532Z,18.47
2018-07-12T14:52:12.830Z,16.90
2018-07-12T14:54:41.635Z,17.90
2018-07-12T14:57:11.189Z,17.13
2018-07-12T14:59:40.129Z,16.97
2018-07-12T15:02:08.949Z,15.27
2018-07-12T15:04:37.692Z,12.97
2018-07-12T15:07:06.440Z,12.20
2018-07-12T15:09:34.896Z,8.77
2018-07-12T15:12:03.644Z,7.33
2018-07-12T15:14:32.357Z,6.70
2018-07-12T15:17:01.231Z,6.00
2018-07-12T15:19:29.969Z,6.63
2018-07-12T15:21:58.696Z,5.07
2018-07-12T15:24:27.584Z,5.30
2018-07-12T15:26:56.470Z,5.53
2018-07-12T15:29:25.260Z,6.90
2018-07-12T15:31:53.869Z,6.03
2018-07-12T15:34:22.598Z,6.07
2018-07-12T15:36:51.484Z,5.73
2018-07-12T15:39:20.184Z,7.23
2018-07-12T15:41:48.909Z,7.80
2018-07-12T15:44:17.886Z,7.73
2018-07-12T15:46:46.585Z,7.00
2018-07-12T15:49:15.302Z,7.20
2018-07-12T15:51:44.058Z,7.37
2018-07-12T15:54:13.066Z,7.60
2018-07-12T15:56:41.889Z,7.93
2018-07-12T15:59:10.608Z,8.83
2018-07-12T16:01:39.305Z,8.77
2018-07-12T16:04:08.025Z,9.50
2018-07-12T16:06:36.786Z,8.40
2018-07-12T16:09:07.908Z,8.47
2018-07-12T16:11:36.598Z,7.13
2018-07-12T16:14:05.372Z,8.70
2018-07-12T16:16:34.089Z,7.13
2018-07-12T16:19:02.809Z,7.53
2018-07-12T16:21:31.553Z,6.70
2018-07-12T16:24:00.245Z,7.00
2018-07-12T16:26:28.973Z,7.63
2018-07-12T16:28:57.672Z,6.93
2018-07-12T16:31:26.433Z,7.23
2018-07-12T16:33:55.116Z,7.53
2018-07-12T16:36:23.805Z,8.37
2018-07-12T16:38:52.511Z,7.07
2018-07-12T16:41:21.176Z,8.70
2018-07-12T16:43:50.036Z,8.80
2018-07-12T16:46:18.794Z,7.80
2018-07-12T16:48:48.098Z,8.70
2018-07-12T16:51:16.773Z,7.87
2018-07-12T16:53:45.569Z,6.80
2018-07-12T16:56:14.368Z,7.20
2018-07-12T16:58:43.062Z,7.10
2018-07-12T17:01:11.768Z,7.10
2018-07-12T17:03:40.420Z,7.97
2018-07-12T17:06:09.109Z,6.93
2018-07-12T17:08:38.332Z,6.80
2018-07-12T17:11:07.087Z,6.83
2018-07-12T17:13:35.764Z,7.13
2018-07-12T17:16:06.059Z,6.50
2018-07-12T17:18:34.798Z,7.00
2018-07-12T17:21:03.541Z,6.80
2018-07-12T17:23:32.239Z,6.63
2018-07-12T17:26:00.960Z,7.70
2018-07-12T17:28:29.625Z,7.70
2018-07-12T17:30:58.414Z,7.20
2018-07-12T17:33:27.116Z,7.00
2018-07-12T17:35:55.836Z,7.57
2018-07-12T17:38:24.845Z,8.10
2018-07-12T17:40:53.547Z,7.93
2018-07-12T17:43:22.212Z,7.63
2018-07-12T17:45:50.916Z,7.27
2018-07-12T17:48:19.620Z,8.30
2018-07-12T17:50:48.285Z,7.80
2018-07-12T17:53:16.984Z,7.53
2018-07-12T17:55:45.650Z,7.70
2018-07-12T17:58:14.323Z,8.67
2018-07-12T18:00:43.061Z,7.70
2018-07-12T18:03:11.819Z,8.93
2018-07-12T18:05:40.533Z,9.03
2018-07-12T18:08:09.323Z,7.30
2018-07-12T18:10:38.072Z,7.20
2018-07-12T18:13:06.861Z,7.80
2018-07-12T18:15:35.569Z,8.00
2018-07-12T18:18:03.908Z,8.53
2018-07-12T18:20:32.736Z,9.00
2018-07-12T18:23:01.486Z,8.47
2018-07-12T18:25:30.185Z,7.97
2018-07-12T18:27:58.912Z,10.23
2018-07-12T18:30:27.618Z,8.43
2018-07-12T18:32:56.310Z,8.83
2018-07-12T18:35:25.102Z,8.97
2018-07-12T18:37:54.056Z,9.60
2018-07-12T18:40:22.788Z,8.17
2018-07-12T18:42:51.783Z,9.53
2018-07-12T18:45:20.560Z,9.00
2018-07-12T18:47:49.549Z,8.70
2018-07-12T18:50:18.238Z,10.33
2018-07-12T18:52:46.934Z,8.30
2018-07-12T18:55:15.601Z,8.40
2018-07-12T18:57:44.370Z,8.57
2018-07-12T19:00:13.119Z,7.40
2018-07-12T19:02:41.897Z,7.60
2018-07-12T19:05:10.590Z,8.87
2018-07-12T19:07:39.359Z,8.00
2018-07-12T19:10:08.138Z,7.87
2018-07-12T19:12:37.064Z,8.30
2018-07-12T19:15:05.875Z,7.93
2018-07-12T19:17:34.564Z,7.53
2018-07-12T19:20:03.459Z,8.80
2018-07-12T19:22:32.201Z,7.70
2018-07-12T19:25:00.891Z,8.40
2018-07-12T19:27:29.593Z,8.70
2018-07-12T19:29:58.305Z,8.00
2018-07-12T19:32:27.006Z,9.20
2018-07-12T19:34:55.746Z,7.67
2018-07-12T19:37:24.438Z,7.70
2018-07-12T19:39:53.107Z,7.50
2018-07-12T19:42:21.797Z,7.60
2018-07-12T19:44:50.537Z,9.80
2018-07-12T19:47:19.254Z,8.10
2018-07-12T19:49:47.937Z,7.53
2018-07-12T19:52:16.688Z,7.57
2018-07-12T19:54:45.415Z,8.50
2018-07-12T19:57:14.270Z,8.80
2018-07-12T19:59:43.033Z,7.67
2018-07-12T20:02:11.756Z,8.23
2018-07-12T20:04:41.269Z,6.90
2018-07-12T20:07:10.140Z,9.47
2018-07-12T20:09:38.847Z,8.00
2018-07-12T20:12:07.857Z,7.27
2018-07-12T20:14:36.639Z,7.07
2018-07-12T20:17:05.423Z,7.80
2018-07-12T20:19:34.232Z,7.93
2018-07-12T20:22:03.363Z,6.37
2018-07-12T20:24:32.070Z,6.87
2018-07-12T20:27:00.794Z,7.73
2018-07-12T20:29:29.763Z,6.70
2018-07-12T20:31:58.559Z,7.20
2018-07-12T20:34:27.245Z,7.10
2018-07-12T20:36:55.941Z,6.33
2018-07-12T20:39:25.005Z,7.07
2018-07-12T20:41:53.913Z,7.63
2018-07-12T20:44:23.240Z,7.30
2018-07-12T20:46:52.248Z,6.80
2018-07-12T20:49:20.951Z,7.87
2018-07-12T20:51:49.811Z,7.90
2018-07-12T20:54:18.680Z,6.83
2018-07-12T20:56:47.400Z,7.50
2018-07-12T20:59:16.172Z,7.37
2018-07-12T21:01:45.014Z,7.80
2018-07-12T21:04:13.993Z,6.90
2018-07-12T21:06:42.933Z,7.27
2018-07-12T21:09:11.632Z,7.70
2018-07-12T21:11:41.953Z,6.60
2018-07-12T21:14:10.676Z,7.73
2018-07-12T21:16:39.364Z,7.27
2018-07-12T21:19:08.085Z,7.60
2018-07-12T21:21:36.804Z,8.13
2018-07-12T21:24:05.705Z,7.23
2018-07-12T21:26:34.664Z,7.60
2018-07-12T21:29:03.344Z,7.13
2018-07-12T21:31:32.149Z,7.63
2018-07-12T21:34:00.944Z,7.37
2018-07-12T21:36:30.284Z,7.40
2018-07-12T21:39:00.121Z,6.70
2018-07-12T21:41:28.792Z,6.57
2018-07-12T21:43:57.497Z,8.17
2018-07-12T21:46:26.205Z,7.10
2018-07-12T21:48:54.968Z,6.20
2018-07-12T21:51:23.725Z,6.90
2018-07-12T21:53:52.412Z,8.03
2018-07-12T21:56:21.725Z,6.63
2018-07-12T21:58:50.548Z,7.80
2018-07-12T22:01:19.245Z,6.27
2018-07-12T22:03:48.079Z,7.10
2018-07-12T22:06:20.701Z,6.50
2018-07-12T22:08:50.037Z,7.30
2018-07-12T22:11:19.227Z,10.30
2018-07-12T22:13:48.046Z,7.30
2018-07-12T22:16:16.732Z,7.60
2018-07-12T22:18:45.384Z,8.63
2018-07-12T22:21:14.192Z,7.37
2018-07-12T22:23:42.865Z,8.27
2018-07-12T22:26:12.413Z,8.33
2018-07-12T22:28:41.160Z,7.20
2018-07-12T22:31:09.866Z,7.00
2018-07-12T22:33:38.529Z,7.60
2018-07-12T22:36:07.256Z,7.53
2018-07-12T22:38:36.277Z,8.27
2018-07-12T22:41:04.962Z,9.43
2018-07-12T22:43:33.681Z,8.37
2018-07-12T22:46:02.354Z,8.10
2018-07-12T22:48:31.206Z,8.90
2018-07-12T22:50:59.794Z,8.80
2018-07-12T22:53:28.508Z,9.30
2018-07-12T22:55:57.193Z,10.50
2018-07-12T22:58:25.921Z,10.03
2018-07-12T23:00:54.659Z,10.23
2018-07-12T23:03:23.358Z,10.45
2018-07-12T23:05:52.157Z,10.75
2018-07-12T23:08:20.877Z,10.98
2018-07-12T23:10:49.596Z,11.45
2018-07-12T23:13:18.324Z,12.80
2018-07-12T23:15:47.048Z,12.65
2018-07-12T23:18:15.689Z,12.25
2018-07-12T23:20:44.342Z,12.18
2018-07-12T23:23:12.977Z,13.13
2018-07-12T23:25:41.596Z,12.65
2018-07-12T23:28:10.278Z,12.33
2018-07-12T23:30:38.919Z,12.75
2018-07-12T23:33:07.586Z,16.90
2018-07-12T23:35:36.268Z,17.67
2018-07-12T23:38:04.992Z,14.60
2018-07-12T23:40:33.744Z,14.30
2018-07-12T23:43:02.448Z,14.50
2018-07-12T23:45:31.148Z,13.75
2018-07-12T23:47:59.864Z,14.43
2018-07-12T23:50:28.578Z,13.83
2018-07-12T23:52:57.292Z,14.95
2018-07-12T23:55:25.988Z,13.83
2018-07-12T23:57:54.655Z,15.17
